Time;durP1;ratioP1;P1;durP2;ratioP2;P2;SDS_P1;SDS_P2;PMS_P1;PMS_P2;Temp;Humidity;BMP_temperature;BMP_pressure;BME280_temperature;BME280_humidity;BME280_pressure;Samples;Min_cycle;Max_cycle;Signal;HPM_P1;HPM_P2
2021/05/26 00:01:36;;;;;;;9.85;0.80;;;;;;;8.13;100.00;97674.06;5017880;28;20072;-82
2021/05/26 00:04:03;;;;;;;4.07;0.70;;;;;;;8.11;100.00;97673.56;5002259;28;20057;-81
2021/05/26 00:06:29;;;;;;;3.80;0.85;;;;;;;8.16;100.00;97673.47;5003039;28;20081;-82
2021/05/26 00:08:56;;;;;;;7.00;0.90;;;;;;;8.15;100.00;97675.38;5001747;28;20095;-82
2021/05/26 00:11:23;;;;;;;3.65;0.90;;;;;;;8.10;100.00;97672.78;5001522;28;20593;-81
2021/05/26 00:13:50;;;;;;;5.60;1.00;;;;;;;8.00;100.00;97661.41;5001198;28;20048;-81
2021/05/26 00:16:17;;;;;;;3.25;0.80;;;;;;;7.97;100.00;97670.06;5003744;28;20092;-83
2021/05/26 00:18:44;;;;;;;4.35;0.80;;;;;;;8.09;100.00;97662.31;5001993;28;20406;-82
2021/05/26 00:21:11;;;;;;;8.52;0.90;;;;;;;8.08;100.00;97664.19;5000568;28;20060;-81
2021/05/26 00:23:38;;;;;;;4.25;1.20;;;;;;;8.04;100.00;97665.09;5000830;28;20105;-80
2021/05/26 00:26:04;;;;;;;3.25;1.08;;;;;;;8.03;100.00;97658.88;4999900;28;20477;-81
2021/05/26 00:28:31;;;;;;;4.25;1.00;;;;;;;8.04;100.00;97649.72;4997870;28;20053;-82
2021/05/26 00:30:59;;;;;;;5.60;0.80;;;;;;;7.96;100.00;97661.19;4998387;28;20087;-81
2021/05/26 00:33:26;;;;;;;3.70;0.90;;;;;;;7.97;100.00;97662.00;5000720;28;20081;-80
2021/05/26 00:35:53;;;;;;;10.43;1.35;;;;;;;8.00;100.00;97659.47;5001686;28;20141;-82
2021/05/26 00:38:20;;;;;;;5.40;0.90;;;;;;;7.92;100.00;97654.00;5000565;28;20111;-82
2021/05/26 00:40:48;;;;;;;6.63;0.95;;;;;;;7.95;100.00;97659.56;5021429;28;20053;-82
2021/05/26 00:43:16;;;;;;;3.40;1.00;;;;;;;7.94;100.00;97663.38;5001641;28;20140;-81
2021/05/26 00:45:44;;;;;;;4.45;1.00;;;;;;;7.97;100.00;97662.00;5000005;28;20468;-83
2021/05/26 00:48:11;;;;;;;5.50;1.00;;;;;;;7.96;100.00;97642.31;4999470;28;20146;-79
2021/05/26 00:50:39;;;;;;;6.03;1.00;;;;;;;7.95;100.00;97656.06;5000667;28;20045;-82
2021/05/26 00:53:12;;;;;;;5.72;0.80;;;;;;;7.98;100.00;97644.69;5001108;28;20053;-82
2021/05/26 00:55:41;;;;;;;5.68;1.00;;;;;;;7.94;100.00;97646.41;5001070;28;20071;-84
2021/05/26 00:58:10;;;;;;;6.03;1.05;;;;;;;7.86;100.00;97652.47;5003814;28;20048;-82
2021/05/26 01:00:41;;;;;;;2.58;0.80;;;;;;;7.97;100.00;97653.91;5000708;28;20061;-82
2021/05/26 01:03:08;;;;;;;1.60;0.82;;;;;;;7.98;100.00;97647.41;5016954;28;20230;-82
2021/05/26 01:05:35;;;;;;;3.80;0.93;;;;;;;8.01;100.00;97638.72;5000574;28;20641;-83
2021/05/26 01:08:02;;;;;;;8.57;1.40;;;;;;;8.06;100.00;97641.31;5000258;28;20080;-82
2021/05/26 01:10:31;;;;;;;3.15;0.88;;;;;;;8.05;100.00;97643.22;5002231;28;20072;-82
2021/05/26 01:12:58;;;;;;;8.77;1.20;;;;;;;8.06;100.00;97635.94;4999533;28;20076;-83
2021/05/26 01:15:25;;;;;;;5.72;1.13;;;;;;;8.14;100.00;97638.75;4999732;28;20049;-82
2021/05/26 01:17:52;;;;;;;3.75;0.88;;;;;;;8.08;100.00;97631.84;5002280;28;20049;-81
2021/05/26 01:20:21;;;;;;;6.35;1.33;;;;;;;8.10;100.00;97634.25;5007536;28;20049;-79
2021/05/26 01:22:48;;;;;;;4.53;1.00;;;;;;;8.25;100.00;97631.25;5007855;28;20095;-81
2021/05/26 01:25:15;;;;;;;3.70;1.10;;;;;;;8.22;100.00;97636.44;5007375;28;20096;-79
2021/05/26 01:27:42;;;;;;;3.08;0.73;;;;;;;8.21;100.00;97641.03;5007505;28;20068;-80
2021/05/26 01:30:10;;;;;;;4.88;1.33;;;;;;;8.22;100.00;97629.16;5002876;28;20520;-82
2021/05/26 01:32:48;;;;;;;5.28;0.98;;;;;;;8.24;100.00;97626.16;5008498;28;20055;-81
2021/05/26 01:35:17;;;;;;;6.40;1.05;;;;;;;8.21;100.00;97624.06;4987013;28;20047;-82
2021/05/26 01:37:46;;;;;;;4.03;0.80;;;;;;;8.26;100.00;97623.97;4986312;28;20063;-82
2021/05/26 01:40:16;;;;;;;3.45;0.93;;;;;;;8.31;100.00;97621.97;4978111;28;20105;-81
2021/05/26 01:42:45;;;;;;;5.55;1.10;;;;;;;8.29;100.00;97615.28;4982379;28;20071;-81
2021/05/26 01:45:13;;;;;;;7.28;0.93;;;;;;;8.28;100.00;97617.22;5015709;28;20053;-81
2021/05/26 01:47:41;;;;;;;4.93;1.13;;;;;;;8.22;100.00;97615.69;5000704;28;20052;-82
2021/05/26 01:50:19;;;;;;;5.53;1.10;;;;;;;8.26;100.00;97613.19;5013769;28;20625;-80
2021/05/26 01:52:59;;;;;;;6.97;1.08;;;;;;;8.19;100.00;97608.19;5034075;28;20041;-84
2021/05/26 01:55:26;;;;;;;3.97;0.88;;;;;;;8.21;100.00;97616.75;4999704;28;20075;-81
2021/05/26 01:57:53;;;;;;;5.07;1.10;;;;;;;8.17;100.00;97599.59;5001541;28;20056;-80
2021/05/26 02:00:21;;;;;;;4.82;0.77;;;;;;;8.19;100.00;97592.00;5000108;28;20400;-82
2021/05/26 02:02:48;;;;;;;3.15;0.98;;;;;;;8.22;100.00;97593.28;4999370;28;20085;-83
2021/05/26 02:05:16;;;;;;;9.05;1.20;;;;;;;8.33;100.00;97587.44;4999917;28;20552;-81
2021/05/26 02:07:44;;;;;;;4.43;0.82;;;;;;;8.34;100.00;97585.53;5000442;28;20049;-81
2021/05/26 02:10:17;;;;;;;6.25;1.15;;;;;;;8.36;100.00;97586.81;4999122;28;20041;-83
2021/05/26 02:12:45;;;;;;;3.78;1.05;;;;;;;8.34;100.00;97588.22;4998031;28;20073;-80
2021/05/26 02:15:14;;;;;;;5.00;1.08;;;;;;;8.36;100.00;97597.59;4996636;28;20176;-80
2021/05/26 02:17:40;;;;;;;6.30;1.00;;;;;;;8.35;100.00;97595.22;4998901;28;20041;-83
2021/05/26 02:20:10;;;;;;;5.85;1.10;;;;;;;8.41;100.00;97588.63;4997552;28;20528;-80
2021/05/26 02:22:37;;;;;;;8.30;1.10;;;;;;;8.49;100.00;97585.22;4999298;28;20053;-82
2021/05/26 02:25:05;;;;;;;6.35;1.15;;;;;;;8.57;100.00;97581.78;5014701;28;20148;-80
2021/05/26 02:27:31;;;;;;;4.50;1.20;;;;;;;8.57;100.00;97579.91;5000366;28;20076;-82
2021/05/26 02:29:59;;;;;;;5.95;1.08;;;;;;;8.62;100.00;97589.81;4998907;28;20045;-83
2021/05/26 02:32:28;;;;;;;4.90;1.13;;;;;;;8.60;100.00;97590.09;4999669;28;20045;-82
2021/05/26 02:37:36;;;;;;;9.75;1.08;;;;;;;8.60;100.00;97582.00;4920637;28;20087;-76
2021/05/26 02:40:03;;;;;;;5.85;0.88;;;;;;;8.58;100.00;97584.19;4924713;29;20063;-76
2021/05/26 02:42:30;;;;;;;4.90;1.13;;;;;;;8.54;100.00;97580.50;4975471;28;20034;-76
2021/05/26 02:44:56;;;;;;;4.00;1.23;;;;;;;8.55;100.00;97586.69;4935727;28;20052;-73
2021/05/26 02:47:23;;;;;;;3.35;1.10;;;;;;;8.46;100.00;97591.22;4987568;28;20057;-77
2021/05/26 02:49:50;;;;;;;5.25;1.10;;;;;;;8.40;100.00;97576.22;5048802;22;20399;-82
2021/05/26 02:52:19;;;;;;;4.55;1.10;;;;;;;8.42;100.00;97576.72;5080776;28;20040;-85
2021/05/26 02:54:50;;;;;;;4.85;1.02;;;;;;;8.35;100.00;97571.75;5095807;28;20131;-83
2021/05/26 02:57:20;;;;;;;7.50;1.30;;;;;;;8.35;100.00;97582.53;5097210;28;20040;-85
2021/05/26 02:59:47;;;;;;;5.78;1.15;;;;;;;8.44;100.00;97577.25;5078218;28;20130;-84
2021/05/26 03:02:16;;;;;;;6.03;0.93;;;;;;;8.43;100.00;97581.84;5082328;28;20048;-86
2021/05/26 03:04:45;;;;;;;4.57;1.02;;;;;;;8.39;100.00;97559.25;5099776;28;20058;-83
2021/05/26 03:07:11;;;;;;;7.28;1.55;;;;;;;8.44;100.00;97580.72;5099438;28;20040;-84
2021/05/26 03:09:49;;;;;;;6.28;1.10;;;;;;;8.49;100.00;97582.53;5080355;28;20404;-80
2021/05/26 03:12:18;;;;;;;6.05;1.27;;;;;;;8.38;100.00;97560.38;5104163;28;20047;-83
2021/05/26 03:14:45;;;;;;;4.30;0.95;;;;;;;8.42;100.00;97568.63;5081732;28;20649;-84
2021/05/26 03:17:12;;;;;;;7.40;1.20;;;;;;;8.50;100.00;97584.91;5100516;28;20044;-85
2021/05/26 03:19:42;;;;;;;8.63;1.45;;;;;;;8.54;100.00;97587.81;5081377;28;20044;-84
2021/05/26 03:22:14;;;;;;;6.30;1.15;;;;;;;8.54;100.00;97582.41;5101095;28;20044;-83
2021/05/26 03:24:56;;;;;;;4.68;1.17;;;;;;;8.49;100.00;97572.50;5099802;28;20558;-83
2021/05/26 03:27:27;;;;;;;4.30;1.20;;;;;;;8.56;100.00;97580.22;5110194;28;20034;-79
2021/05/26 03:29:53;;;;;;;3.17;1.10;;;;;;;8.52;100.00;97571.09;5082115;28;20495;-86
2021/05/26 03:32:22;;;;;;;6.88;1.10;;;;;;;8.54;100.00;97567.00;5062255;28;20509;-82
2021/05/26 03:34:54;;;;;;;7.30;1.50;;;;;;;8.63;100.00;97581.41;5059537;28;20048;-82
2021/05/26 03:37:31;;;;;;;6.78;1.33;;;;;;;8.60;100.00;97579.28;5061783;28;20101;-81
2021/05/26 03:39:57;;;;;;;9.23;1.50;;;;;;;8.62;100.00;97579.78;5077762;28;20126;-81
2021/05/26 03:42:30;;;;;;;3.80;1.45;;;;;;;8.57;100.00;97561.00;5077831;28;20044;-85
2021/05/26 03:45:00;;;;;;;7.85;1.33;;;;;;;8.57;100.00;97558.31;5095009;28;20135;-82
2021/05/26 03:47:29;;;;;;;5.28;1.30;;;;;;;8.54;100.00;97558.13;5095571;28;20048;-81
2021/05/26 03:49:56;;;;;;;3.90;1.20;;;;;;;8.50;100.00;97557.94;5088347;28;20040;-81
2021/05/26 03:52:28;;;;;;;5.72;1.20;;;;;;;8.60;100.00;97555.00;5088752;28;20070;-83
2021/05/26 03:54:54;;;;;;;7.32;1.50;;;;;;;8.57;100.00;97550.22;5090083;28;20119;-82
2021/05/26 03:57:34;;;;;;;8.77;1.45;;;;;;;8.61;100.00;97551.22;5076861;28;20065;-81
2021/05/26 04:00:10;;;;;;;6.72;1.40;;;;;;;8.54;100.00;97529.22;5090187;28;20059;-83
2021/05/26 04:02:37;;;;;;;4.60;1.30;;;;;;;8.70;100.00;97543.97;5092089;28;20395;-81
2021/05/26 04:05:12;;;;;;;6.93;1.08;;;;;;;8.68;100.00;97538.09;5100825;28;20109;-84
2021/05/26 04:07:42;;;;;;;3.92;1.13;;;;;;;8.64;100.00;97537.13;5066941;28;20048;-84
2021/05/26 04:10:10;;;;;;;5.85;1.13;;;;;;;8.69;100.00;97542.41;5077802;28;20052;-82
2021/05/26 04:12:49;;;;;;;4.05;1.45;;;;;;;8.74;100.00;97536.91;5082412;28;20227;-84
2021/05/26 04:15:29;;;;;;;4.65;1.20;;;;;;;8.75;100.00;97545.75;5066260;28;20052;-83
2021/05/26 04:18:05;;;;;;;4.18;1.05;;;;;;;8.84;100.00;97543.94;5081103;28;20584;-83
2021/05/26 04:20:32;;;;;;;6.78;1.77;;;;;;;8.81;100.00;97539.16;5098450;28;20040;-82
2021/05/26 04:23:05;;;;;;;5.78;1.60;;;;;;;8.87;100.00;97537.94;5079151;28;20040;-83
2021/05/26 04:25:58;;;;;;;5.43;1.30;;;;;;;8.86;100.00;97530.94;5066832;28;20032;-82
2021/05/26 04:28:48;;;;;;;7.75;1.35;;;;;;;8.82;100.00;97527.25;5064096;28;20044;-81
2021/05/26 04:31:27;;;;;;;5.85;1.20;;;;;;;8.81;100.00;97522.16;5080004;28;20051;-85
2021/05/26 04:33:57;;;;;;;6.00;1.52;;;;;;;8.91;100.00;97527.31;5085740;28;20016;-79
2021/05/26 04:36:30;;;;;;;6.03;1.10;;;;;;;8.96;100.00;97532.59;5067541;28;20060;-82
2021/05/26 04:38:58;;;;;;;6.35;1.50;;;;;;;8.95;100.00;97533.72;5060979;28;20040;-82
2021/05/26 04:41:33;;;;;;;7.55;1.75;;;;;;;8.94;100.00;97524.81;5077349;28;20075;-83
2021/05/26 04:44:06;;;;;;;6.47;1.35;;;;;;;8.98;100.00;97517.69;5044670;28;20139;-84
2021/05/26 04:46:35;;;;;;;7.85;1.55;;;;;;;9.17;100.00;97521.00;5048462;28;20054;-81
2021/05/26 04:49:16;;;;;;;6.30;1.23;;;;;;;9.18;100.00;97519.91;5044586;28;20145;-80
2021/05/26 04:51:44;;;;;;;3.17;1.13;;;;;;;9.31;100.00;97531.72;5023691;28;20106;-81
2021/05/26 04:54:19;;;;;;;5.35;1.23;;;;;;;9.35;100.00;97538.91;5066293;28;20044;-83
2021/05/26 04:56:49;;;;;;;7.00;1.27;;;;;;;9.38;100.00;97513.19;5076004;28;20104;-81
2021/05/26 04:59:22;;;;;;;6.40;1.10;;;;;;;9.38;100.00;97507.78;5054528;28;20113;-84
2021/05/26 05:02:06;;;;;;;10.00;1.40;;;;;;;9.53;100.00;97520.88;5062127;28;20048;-79
2021/05/26 05:04:39;;;;;;;9.90;1.35;;;;;;;9.62;100.00;97537.16;5080811;28;20044;-80
2021/05/26 05:07:06;;;;;;;8.07;1.10;;;;;;;9.69;100.00;97529.38;5083305;28;20044;-81
2021/05/26 05:09:38;;;;;;;5.22;1.17;;;;;;;9.74;100.00;97524.63;5061449;28;20478;-83
2021/05/26 05:12:05;;;;;;;7.30;1.40;;;;;;;9.75;100.00;97514.63;5072275;28;20056;-82
2021/05/26 05:14:32;;;;;;;5.95;1.23;;;;;;;9.87;100.00;97531.84;5072236;28;20068;-79
2021/05/26 05:16:59;;;;;;;7.72;1.48;;;;;;;9.82;100.00;97528.47;5072244;28;20055;-82
2021/05/26 05:19:42;;;;;;;6.75;1.10;;;;;;;9.87;100.00;97520.22;5054377;28;20067;-81
2021/05/26 05:22:09;;;;;;;11.48;1.38;;;;;;;9.86;100.00;97535.66;5074236;28;20040;-84
2021/05/26 05:24:35;;;;;;;6.32;1.40;;;;;;;9.93;100.00;97529.81;5076255;28;20100;-81
2021/05/26 05:27:09;;;;;;;7.30;1.38;;;;;;;10.03;100.00;97524.09;5065667;28;20115;-79
2021/05/26 05:29:38;;;;;;;6.75;1.52;;;;;;;9.97;100.00;97515.34;5079323;28;20055;-81
2021/05/26 05:32:06;;;;;;;8.40;1.45;;;;;;;10.13;100.00;97533.88;5099076;28;20081;-84
2021/05/26 05:34:35;;;;;;;7.35;1.50;;;;;;;10.15;100.00;97532.44;5108136;28;20047;-82
2021/05/26 05:37:09;;;;;;;9.02;1.20;;;;;;;10.20;100.00;97539.59;5075581;28;20058;-83
2021/05/26 05:39:36;;;;;;;7.25;1.20;;;;;;;10.20;100.00;97536.91;5074136;28;20048;-84
2021/05/26 05:42:06;;;;;;;9.60;1.52;;;;;;;10.08;100.00;97534.78;5088249;28;20160;-82
2021/05/26 05:44:36;;;;;;;7.85;1.40;;;;;;;10.19;100.00;97535.31;5084779;28;20048;-80
2021/05/26 05:47:02;;;;;;;8.43;1.65;;;;;;;10.24;100.00;97527.06;5084587;28;20433;-83
2021/05/26 05:49:33;;;;;;;5.90;1.30;;;;;;;10.46;100.00;97526.94;5083997;28;20043;-84
2021/05/26 05:52:00;;;;;;;10.95;1.40;;;;;;;10.49;100.00;97534.41;5067455;28;20052;-81
2021/05/26 05:54:26;;;;;;;6.18;1.50;;;;;;;10.50;100.00;97515.16;5068307;28;20121;-82
2021/05/26 05:56:59;;;;;;;4.78;1.20;;;;;;;10.41;100.00;97524.38;5100255;28;20044;-82
2021/05/26 05:59:34;;;;;;;5.75;1.27;;;;;;;10.42;100.00;97531.41;5064477;28;20048;-81
2021/05/26 06:02:15;;;;;;;6.72;1.38;;;;;;;10.30;100.00;97523.06;5080041;28;20046;-83
2021/05/26 06:04:45;;;;;;;8.82;1.60;;;;;;;10.19;100.00;97513.69;5064039;28;20139;-82
2021/05/26 06:07:12;;;;;;;9.25;1.58;;;;;;;10.26;100.00;97519.41;5066103;28;20047;-81
2021/05/26 06:09:45;;;;;;;8.73;1.52;;;;;;;10.54;100.00;97526.94;5093773;28;20074;-82
2021/05/26 06:12:14;;;;;;;6.72;1.35;;;;;;;10.73;100.00;97515.81;5069830;28;20082;-86
2021/05/26 06:14:48;;;;;;;8.65;1.45;;;;;;;10.87;100.00;97505.63;5100561;28;20207;-84
2021/05/26 06:17:21;;;;;;;8.30;1.25;;;;;;;11.10;100.00;97511.63;5075236;28;20135;-82
2021/05/26 06:19:51;;;;;;;8.50;1.63;;;;;;;11.31;100.00;97533.44;5097516;28;20091;-82
2021/05/26 06:22:24;;;;;;;4.00;1.20;;;;;;;11.04;100.00;97523.78;5059038;28;20060;-83
2021/05/26 06:24:57;;;;;;;8.25;1.83;;;;;;;10.85;100.00;97510.56;5071839;28;20066;-82
2021/05/26 06:27:27;;;;;;;9.75;1.60;;;;;;;11.05;100.00;97536.97;5081678;28;20060;-83
2021/05/26 06:30:20;;;;;;;9.15;1.27;;;;;;;11.07;100.00;97504.19;5086816;28;20052;-84
2021/05/26 06:32:51;;;;;;;8.63;1.58;;;;;;;11.08;100.00;97511.16;5063400;28;20131;-81
2021/05/26 06:35:36;;;;;;;10.07;1.50;;;;;;;11.15;100.00;97504.16;5069349;28;20048;-86
2021/05/26 06:38:18;;;;;;;4.35;1.10;;;;;;;11.34;100.00;97511.13;5056526;28;20055;-87
2021/05/26 06:40:50;;;;;;;6.47;1.23;;;;;;;11.63;100.00;97495.75;5058102;28;20110;-84
2021/05/26 06:43:27;;;;;;;9.82;1.83;;;;;;;11.84;100.00;97495.84;5042782;28;20368;-83
2021/05/26 06:46:00;;;;;;;6.10;1.33;;;;;;;11.90;100.00;97510.81;5043742;28;20102;-85
2021/05/26 06:48:32;;;;;;;6.00;1.10;;;;;;;12.27;100.00;97507.25;5046205;28;20049;-86
2021/05/26 06:50:58;;;;;;;7.32;1.35;;;;;;;12.35;100.00;97502.91;5076203;28;20414;-85
2021/05/26 06:53:25;;;;;;;5.28;0.95;;;;;;;12.13;100.00;97511.34;5076858;28;20585;-83
2021/05/26 06:55:53;;;;;;;5.20;1.10;;;;;;;11.77;100.00;97492.81;5066721;28;20028;-83
2021/05/26 06:58:20;;;;;;;8.40;1.00;;;;;;;11.82;100.00;97507.00;5042930;28;20059;-81
2021/05/26 07:00:48;;;;;;;9.27;1.50;;;;;;;11.95;100.00;97515.28;5075932;28;20040;-84
2021/05/26 07:03:17;;;;;;;6.03;1.30;;;;;;;12.04;100.00;97497.00;5043903;28;20159;-80
2021/05/26 07:05:44;;;;;;;6.03;1.27;;;;;;;12.29;100.00;97490.63;5077308;28;20067;-81
2021/05/26 07:08:11;;;;;;;8.38;1.30;;;;;;;12.24;100.00;97496.25;5076329;28;20051;-83
2021/05/26 07:10:40;;;;;;;3.85;1.10;;;;;;;12.55;100.00;97501.31;5078020;28;20104;-87
2021/05/26 07:13:13;;;;;;;7.45;1.35;;;;;;;12.95;100.00;97494.31;5080771;28;20079;-84
2021/05/26 07:15:40;;;;;;;5.95;1.27;;;;;;;12.74;100.00;97491.59;5099295;28;20054;-85
2021/05/26 07:18:08;;;;;;;7.68;1.23;;;;;;;12.70;100.00;97498.03;5099804;28;20044;-80
2021/05/26 07:20:36;;;;;;;7.13;1.45;;;;;;;12.74;100.00;97497.03;5066525;28;20076;-80
2021/05/26 07:23:09;;;;;;;7.32;1.42;;;;;;;12.88;100.00;97499.47;5090464;28;20092;-82
2021/05/26 07:25:36;;;;;;;6.30;1.42;;;;;;;13.00;100.00;97513.91;5088071;28;20063;-82
2021/05/26 07:28:02;;;;;;;5.00;1.50;;;;;;;12.93;100.00;97505.50;5078803;28;20107;-79
2021/05/26 07:30:33;;;;;;;8.68;1.33;;;;;;;12.84;100.00;97503.97;5098090;28;20036;-81
2021/05/26 07:33:02;;;;;;;5.13;0.85;;;;;;;12.69;100.00;97477.44;5080828;28;20044;-79
2021/05/26 07:35:29;;;;;;;7.28;1.30;;;;;;;12.99;100.00;97492.50;5080360;28;20065;-79
2021/05/26 07:37:58;;;;;;;5.95;1.27;;;;;;;12.82;100.00;97506.25;5065170;28;20067;-82
2021/05/26 07:40:28;;;;;;;5.35;1.05;;;;;;;12.65;100.00;97484.63;5086592;28;20047;-84
2021/05/26 07:42:55;;;;;;;4.90;0.93;;;;;;;12.49;100.00;97490.66;5098543;28;20055;-83
2021/05/26 07:45:24;;;;;;;5.40;1.30;;;;;;;12.54;100.00;97476.13;5079505;28;20044;-84
2021/05/26 07:47:53;;;;;;;3.70;1.20;;;;;;;12.64;100.00;97480.34;5080163;28;20083;-81
2021/05/26 07:50:19;;;;;;;9.52;1.70;;;;;;;12.79;100.00;97472.38;5097846;28;20066;-84
2021/05/26 07:53:04;;;;;;;4.45;1.00;;;;;;;12.85;100.00;97468.31;5077008;28;20036;-85
2021/05/26 07:55:31;;;;;;;5.07;1.10;;;;;;;13.07;100.00;97470.72;5079942;28;20044;-83
2021/05/26 07:58:01;;;;;;;6.53;1.17;;;;;;;13.09;100.00;97481.25;5097398;28;20267;-82
2021/05/26 08:00:28;;;;;;;7.05;1.75;;;;;;;13.23;100.00;97473.59;5098083;28;20054;-83
2021/05/26 08:02:54;;;;;;;4.38;1.27;;;;;;;13.39;100.00;97474.56;5106153;28;20020;-77
2021/05/26 08:05:23;;;;;;;8.43;1.15;;;;;;;13.33;100.00;97461.50;5099421;28;20040;-83
2021/05/26 08:07:51;;;;;;;9.68;1.58;;;;;;;13.32;100.00;97455.25;5077089;28;20066;-79
2021/05/26 08:10:17;;;;;;;6.28;1.30;;;;;;;13.58;100.00;97455.75;5076260;28;20047;-81
2021/05/26 08:12:44;;;;;;;5.72;1.35;;;;;;;13.62;100.00;97453.16;5076296;28;20062;-82
2021/05/26 08:15:13;;;;;;;4.95;1.10;;;;;;;13.96;100.00;97457.38;5093695;28;20040;-82
2021/05/26 08:17:40;;;;;;;3.30;1.20;;;;;;;14.11;100.00;97446.59;5094952;28;20036;-79
2021/05/26 08:20:07;;;;;;;6.60;1.10;;;;;;;14.64;100.00;97448.19;5077443;28;20065;-81
2021/05/26 08:22:34;;;;;;;6.50;1.40;;;;;;;15.04;100.00;97452.81;5095813;28;20052;-84
2021/05/26 08:25:05;;;;;;;3.60;1.00;;;;;;;15.28;100.00;97444.53;5096003;28;20113;-80
2021/05/26 08:27:32;;;;;;;9.18;1.17;;;;;;;14.70;100.00;97432.41;5096308;28;20558;-81
2021/05/26 08:30:01;;;;;;;3.67;1.10;;;;;;;14.15;100.00;97439.31;5096259;28;20050;-82
2021/05/26 08:32:33;;;;;;;3.10;0.60;;;;;;;14.01;100.00;97429.94;5096737;28;20044;-81
2021/05/26 08:35:00;;;;;;;5.65;0.80;;;;;;;13.92;100.00;97431.97;5096191;28;20096;-84
2021/05/26 08:37:27;;;;;;;2.17;0.50;;;;;;;13.42;100.00;97440.44;5078385;28;20051;-82
2021/05/26 08:39:53;;;;;;;3.22;0.80;;;;;;;13.27;100.00;97436.44;5077958;28;20071;-81
2021/05/26 08:42:20;;;;;;;6.07;0.77;;;;;;;13.18;100.00;97440.41;5078618;28;20101;-82
2021/05/26 08:44:47;;;;;;;3.92;0.57;;;;;;;13.05;100.00;97442.25;5094186;28;20047;-79
2021/05/26 08:47:16;;;;;;;4.60;0.88;;;;;;;13.36;100.00;97436.34;5092575;28;20042;-85
2021/05/26 08:49:49;;;;;;;8.15;0.85;;;;;;;13.29;100.00;97434.16;5070630;22;20069;-75
2021/05/26 08:52:17;;;;;;;3.30;0.70;;;;;;;13.51;100.00;97443.84;5069149;28;20083;-75
2021/05/26 08:54:47;;;;;;;6.00;0.88;;;;;;;13.57;100.00;97437.88;5069819;28;20491;-76
2021/05/26 08:57:15;;;;;;;2.10;0.60;;;;;;;13.41;100.00;97425.25;5070719;28;20542;-74
2021/05/26 08:59:42;;;;;;;3.08;0.70;;;;;;;13.54;100.00;97424.94;5071594;28;20086;-76
2021/05/26 09:02:14;;;;;;;3.47;0.88;;;;;;;13.22;100.00;97411.41;5091389;28;20129;-77
2021/05/26 09:04:42;;;;;;;3.25;0.75;;;;;;;13.19;100.00;97425.69;5073204;28;20506;-81
2021/05/26 09:07:18;;;;;;;2.78;0.75;;;;;;;13.12;100.00;97409.91;5073858;28;20047;-79
2021/05/26 09:09:58;;;;;;;1.52;0.50;;;;;;;13.24;100.00;97412.66;5090798;28;20043;-76
2021/05/26 09:12:43;;;;;;;3.08;0.70;;;;;;;13.48;100.00;97420.03;5090796;28;20050;-76
2021/05/26 09:15:20;;;;;;;9.33;1.10;;;;;;;13.30;100.00;97414.03;5072445;28;20046;-77
2021/05/26 09:17:48;;;;;;;5.85;0.80;;;;;;;13.42;100.00;97407.81;5091409;28;20642;-78
2021/05/26 09:20:24;;;;;;;2.83;0.90;;;;;;;13.21;100.00;97404.38;5090432;28;20093;-77
2021/05/26 09:22:59;;;;;;;;;;;;;;;13.04;100.00;97397.97;5091224;28;20075;-79
2021/05/26 09:25:28;;;;;;;4.85;0.90;;;;;;;13.04;100.00;97400.69;5090056;28;20329;-76
2021/05/26 09:28:34;;;;;;;4.00;1.00;;;;;;;12.83;100.00;97399.16;5072103;28;20043;-75
2021/05/26 09:31:06;;;;;;;3.10;0.98;;;;;;;12.64;100.00;97398.88;5091707;28;20394;-78
2021/05/26 09:33:40;;;;;;;4.22;0.80;;;;;;;12.35;100.00;97405.19;5073386;28;20040;-75
2021/05/26 09:36:09;;;;;;;4.90;1.00;;;;;;;12.03;100.00;97406.69;5092529;28;20548;-77
2021/05/26 09:38:52;;;;;;;6.70;1.08;;;;;;;12.04;100.00;97405.56;5057326;28;20195;-77
2021/05/26 09:41:33;;;;;;;4.13;0.88;;;;;;;12.05;100.00;97399.03;5072732;28;20129;-78
2021/05/26 09:44:01;;;;;;;3.45;0.82;;;;;;;11.90;100.00;97405.00;5089170;28;20036;-76
2021/05/26 09:46:29;;;;;;;4.65;1.17;;;;;;;11.90;100.00;97394.16;5090108;28;20044;-76
2021/05/26 09:48:59;;;;;;;3.25;1.05;;;;;;;12.02;100.00;97407.81;5072408;28;20056;-76
2021/05/26 09:51:30;;;;;;;8.70;1.30;;;;;;;11.95;100.00;97414.91;5090390;28;20036;-79
2021/05/26 09:54:21;;;;;;;6.95;1.40;;;;;;;11.75;100.00;97408.28;5079508;28;20040;-76
2021/05/26 09:56:53;;;;;;;4.18;1.25;;;;;;;11.73;100.00;97405.13;5097608;28;20040;-76
2021/05/26 09:59:21;;;;;;;5.10;1.00;;;;;;;11.64;100.00;97402.41;5079309;28;20046;-76
2021/05/26 10:01:54;;;;;;;123.22;9.05;;;;;;;11.46;100.00;97408.28;5098837;28;20040;-78
2021/05/26 10:04:25;;;;;;;242.13;17.17;;;;;;;11.33;100.00;97409.28;5087217;28;20483;-78
2021/05/26 10:06:55;;;;;;;24.20;2.40;;;;;;;11.36;100.00;97411.31;5043113;28;20142;-78
2021/05/26 10:09:24;;;;;;;8.02;1.27;;;;;;;11.44;100.00;97407.78;5087493;28;20515;-76
2021/05/26 10:11:56;;;;;;;4.28;1.15;;;;;;;11.52;100.00;97394.19;5099816;28;20040;-77
2021/05/26 10:14:24;;;;;;;6.65;1.30;;;;;;;11.67;100.00;97409.91;5080634;28;20036;-79
2021/05/26 10:16:54;;;;;;;7.75;1.30;;;;;;;11.58;100.00;97408.38;5081932;28;20047;-77
2021/05/26 10:19:22;;;;;;;5.22;1.10;;;;;;;11.60;100.00;97389.84;5097848;28;20404;-77
2021/05/26 10:21:50;;;;;;;4.40;0.80;;;;;;;11.77;100.00;97397.91;5097047;28;20048;-79
2021/05/26 10:24:21;;;;;;;6.40;1.30;;;;;;;12.00;100.00;97385.63;5096941;28;20040;-77
2021/05/26 10:27:06;;;;;;;3.67;1.23;;;;;;;12.51;100.00;97384.44;5079203;28;20040;-77
2021/05/26 10:29:34;;;;;;;7.28;1.13;;;;;;;13.03;100.00;97385.50;5079597;28;20044;-78
2021/05/26 10:32:01;;;;;;;6.25;1.30;;;;;;;13.38;100.00;97375.06;5080012;28;20573;-77
2021/05/26 10:34:45;;;;;;;4.60;0.70;;;;;;;13.22;100.00;97370.63;5097269;28;20552;-77
2021/05/26 10:37:14;;;;;;;5.85;0.90;;;;;;;13.08;100.00;97379.88;5080786;28;20127;-79
2021/05/26 10:39:41;;;;;;;4.68;0.63;;;;;;;12.67;100.00;97373.75;5079862;28;20201;-79
2021/05/26 10:42:30;;;;;;;6.18;0.90;;;;;;;12.92;100.00;97384.38;5079544;28;20594;-78
2021/05/26 10:45:03;;;;;;;2.75;0.80;;;;;;;13.48;100.00;97377.34;5096685;28;20109;-81
2021/05/26 10:47:35;;;;;;;97.57;8.40;;;;;;;14.15;100.00;97371.25;5079047;28;20051;-79
2021/05/26 10:50:16;;;;;;;307.27;21.25;;;;;;;14.48;100.00;97367.56;5096854;28;20047;-79
2021/05/26 10:52:58;;;;;;;2.53;0.73;;;;;;;14.50;100.00;97376.97;5096718;28;20039;-77
2021/05/26 10:55:45;;;;;;;157.02;12.05;;;;;;;14.74;100.00;97363.25;5078803;28;20044;-78
2021/05/26 10:58:24;;;;;;;207.35;16.15;;;;;;;15.01;100.00;97361.63;5096540;28;20081;-76
2021/05/26 11:01:00;;;;;;;185.10;14.20;;;;;;;15.36;100.00;97361.72;5096278;28;20050;-78
2021/05/26 11:03:30;;;;;;;16.52;1.67;;;;;;;15.73;100.00;97362.25;5077191;28;20047;-77
2021/05/26 11:06:18;;;;;;;249.15;18.55;;;;;;;14.79;100.00;97359.47;5092803;28;20051;-76
2021/05/26 11:08:46;;;;;;;299.48;22.42;;;;;;;14.25;100.00;97353.63;5093434;28;20089;-77
2021/05/26 11:11:25;;;;;;;111.32;9.48;;;;;;;14.06;100.00;97351.56;5089848;28;20097;-76
2021/05/26 11:16:40;;;;;;;82.20;7.68;;;;;;;12.91;100.00;97376.53;5074453;28;20044;-76
2021/05/26 11:19:12;;;;;;;7.05;0.98;;;;;;;12.45;100.00;97356.72;5075903;28;20131;-76
2021/05/26 11:21:41;;;;;;;3.58;0.80;;;;;;;12.31;100.00;97367.03;5092482;28;20048;-76
2021/05/26 11:24:08;;;;;;;5.85;0.90;;;;;;;12.01;100.00;97373.66;5073913;28;20082;-77
2021/05/26 11:26:37;;;;;;;2.35;0.75;;;;;;;11.90;100.00;97382.53;5092614;28;20339;-77
2021/05/26 11:29:04;;;;;;;4.65;0.93;;;;;;;11.84;100.00;97384.66;5074676;28;20514;-75
2021/05/26 11:31:30;;;;;;;3.20;0.80;;;;;;;11.78;100.00;97381.31;5074702;28;20093;-76
2021/05/26 11:33:58;;;;;;;31.27;1.90;;;;;;;11.72;100.00;97390.75;5094344;28;20491;-77
2021/05/26 11:36:45;;;;;;;163.57;11.70;;;;;;;11.60;100.00;97381.72;5102336;28;20036;-76
2021/05/26 11:39:30;;;;;;;102.95;7.05;;;;;;;11.85;100.00;97375.38;5084713;28;20050;-76
2021/05/26 11:42:13;;;;;;;85.40;8.05;;;;;;;12.02;100.00;97377.19;5101698;28;20047;-77
2021/05/26 11:44:45;;;;;;;10.88;1.13;;;;;;;11.83;100.00;97378.41;5108673;28;20266;-78
2021/05/26 11:47:12;;;;;;;27.00;2.75;;;;;;;11.47;100.00;97380.03;5089356;28;20234;-79
2021/05/26 11:49:40;;;;;;;25.08;3.20;;;;;;;11.57;100.00;97393.22;5100959;28;20048;-76